sensor_id;sensor_type;location;lat;lon;timestamp;pressure;altitude;pressure_sealevel;temperature;humidity
7182;BME280;3632;42.724;23.298;2023-02-24T00:01:37;95406.81;;;9.98;86.41
7182;BME280;3632;42.724;23.298;2023-02-24T00:04:06;95405.19;;;9.97;86.91
7182;BME280;3632;42.724;23.298;2023-02-24T00:06:35;95230.03;;;8.06;87.04
7182;BME280;3632;42.724;23.298;2023-02-24T00:09:05;95453.34;;;10.00;86.50
7182;BME280;3632;42.724;23.298;2023-02-24T00:11:36;95288.22;;;9.28;86.98
7182;BME280;3632;42.724;23.298;2023-02-24T00:14:04;95394.91;;;9.88;86.63
7182;BME280;3632;42.724;23.298;2023-02-24T00:16:31;95402.19;;;9.92;86.71
7182;BME280;3632;42.724;23.298;2023-02-24T00:18:59;95403.94;;;10.03;86.43
7182;BME280;3632;42.724;23.298;2023-02-24T00:21:27;95398.69;;;9.93;86.68
7182;BME280;3632;42.724;23.298;2023-02-24T00:23:55;94698.09;;;5.49;86.21
7182;BME280;3632;42.724;23.298;2023-02-24T00:26:24;95398.34;;;9.87;87.07
7182;BME280;3632;42.724;23.298;2023-02-24T00:28:56;95400.28;;;9.72;87.84
7182;BME280;3632;42.724;23.298;2023-02-24T00:31:28;95341.31;;;9.32;87.01
7182;BME280;3632;42.724;23.298;2023-02-24T00:33:56;95114.72;;;7.73;88.81
7182;BME280;3632;42.724;23.298;2023-02-24T00:36:24;95382.59;;;9.36;89.07
7182;BME280;3632;42.724;23.298;2023-02-24T00:38:55;95130.16;;;7.70;90.17
7182;BME280;3632;42.724;23.298;2023-02-24T00:41:24;95075.84;;;6.87;89.96
7182;BME280;3632;42.724;23.298;2023-02-24T00:43:56;95385.66;;;9.52;89.48
7182;BME280;3632;42.724;23.298;2023-02-24T00:46:25;95379.66;;;9.64;88.49
7182;BME280;3632;42.724;23.298;2023-02-24T00:48:55;95010.41;;;6.81;87.78
7182;BME280;3632;42.724;23.298;2023-02-24T00:51:24;94690.84;;;5.20;88.52
7182;BME280;3632;42.724;23.298;2023-02-24T00:53:54;94856.94;;;6.06;88.22
7182;BME280;3632;42.724;23.298;2023-02-24T00:56:22;95376.25;;;9.41;89.35
7182;BME280;3632;42.724;23.298;2023-02-24T00:58:51;95225.72;;;8.55;88.69
7182;BME280;3632;42.724;23.298;2023-02-24T01:01:22;94580.16;;;4.50;87.95
7182;BME280;3632;42.724;23.298;2023-02-24T01:03:49;95374.16;;;9.46;88.67
7182;BME280;3632;42.724;23.298;2023-02-24T01:06:20;94758.13;;;5.33;88.12
7182;BME280;3632;42.724;23.298;2023-02-24T01:08:47;95340.34;;;9.22;89.49
7182;BME280;3632;42.724;23.298;2023-02-24T01:11:15;95356.25;;;9.37;89.40
7182;BME280;3632;42.724;23.298;2023-02-24T01:13:59;95361.88;;;9.29;90.20
7182;BME280;3632;42.724;23.298;2023-02-24T01:16:27;95138.56;;;6.71;90.02
7182;BME280;3632;42.724;23.298;2023-02-24T01:18:54;95351.41;;;9.21;90.05
7182;BME280;3632;42.724;23.298;2023-02-24T01:21:21;95339.59;;;9.09;90.16
7182;BME280;3632;42.724;23.298;2023-02-24T01:23:49;94871.63;;;6.37;89.48
7182;BME280;3632;42.724;23.298;2023-02-24T01:26:17;95329.06;;;9.37;88.82
7182;BME280;3632;42.724;23.298;2023-02-24T01:28:44;95338.69;;;9.45;88.36
7182;BME280;3632;42.724;23.298;2023-02-24T01:31:13;95325.88;;;9.23;89.50
7182;BME280;3632;42.724;23.298;2023-02-24T01:33:46;95355.97;;;9.29;88.81
7182;BME280;3632;42.724;23.298;2023-02-24T01:36:16;95419.28;;;9.21;89.75
7182;BME280;3632;42.724;23.298;2023-02-24T01:38:44;95445.22;;;9.13;89.87
7182;BME280;3632;42.724;23.298;2023-02-24T01:41:13;95340.06;;;9.14;89.64
7182;BME280;3632;42.724;23.298;2023-02-24T01:43:55;95348.22;;;9.30;88.82
7182;BME280;3632;42.724;23.298;2023-02-24T01:46:23;95206.34;;;8.42;88.80
7182;BME280;3632;42.724;23.298;2023-02-24T01:48:54;95340.72;;;9.29;88.35
7182;BME280;3632;42.724;23.298;2023-02-24T01:51:23;95342.84;;;9.11;89.40
7182;BME280;3632;42.724;23.298;2023-02-24T01:53:53;95124.75;;;7.75;89.33
7182;BME280;3632;42.724;23.298;2023-02-24T01:56:20;95364.22;;;8.48;89.66
7182;BME280;3632;42.724;23.298;2023-02-24T01:58:47;95325.34;;;9.30;88.65
7182;BME280;3632;42.724;23.298;2023-02-24T02:01:14;95281.09;;;8.98;88.14
7182;BME280;3632;42.724;23.298;2023-02-24T02:03:44;94907.44;;;6.69;87.67
7182;BME280;3632;42.724;23.298;2023-02-24T02:06:15;95341.09;;;9.46;86.71
7182;BME280;3632;42.724;23.298;2023-02-24T02:08:43;95341.81;;;9.48;86.46
7182;BME280;3632;42.724;23.298;2023-02-24T02:11:12;95337.84;;;9.33;87.02
7182;BME280;3632;42.724;23.298;2023-02-24T02:13:42;95336.56;;;9.04;87.76
7182;BME280;3632;42.724;23.298;2023-02-24T02:16:36;95282.72;;;8.51;89.17
7182;BME280;3632;42.724;23.298;2023-02-24T02:19:33;95335.34;;;8.86;89.50
7182;BME280;3632;42.724;23.298;2023-02-24T02:22:32;95341.97;;;8.76;89.42
7182;BME280;3632;42.724;23.298;2023-02-24T02:25:07;95374.69;;;8.80;89.66
7182;BME280;3632;42.724;23.298;2023-02-24T02:27:53;95453.78;;;8.76;89.83
7182;BME280;3632;42.724;23.298;2023-02-24T02:30:51;95334.63;;;8.60;90.39
7182;BME280;3632;42.724;23.298;2023-02-24T02:34:04;95162.13;;;7.60;89.50
7182;BME280;3632;42.724;23.298;2023-02-24T02:36:40;95344.19;;;8.80;89.29
7182;BME280;3632;42.724;23.298;2023-02-24T02:39:15;95342.50;;;8.92;89.03
7182;BME280;3632;42.724;23.298;2023-02-24T02:41:52;95331.91;;;8.98;87.93
7182;BME280;3632;42.724;23.298;2023-02-24T02:44:31;95348.69;;;8.77;88.99
7182;BME280;3632;42.724;23.298;2023-02-24T02:47:09;95336.88;;;8.76;89.80
7182;BME280;3632;42.724;23.298;2023-02-24T02:49:41;95039.47;;;6.13;88.88
7182;BME280;3632;42.724;23.298;2023-02-24T02:52:13;94865.09;;;5.46;88.32
7182;BME280;3632;42.724;23.298;2023-02-24T02:54:45;95392.78;;;8.76;89.24
7182;BME280;3632;42.724;23.298;2023-02-24T02:57:18;95251.31;;;8.16;89.41
7182;BME280;3632;42.724;23.298;2023-02-24T02:59:50;95328.44;;;8.51;89.89
7182;BME280;3632;42.724;23.298;2023-02-24T03:02:20;95329.66;;;8.46;91.04
7182;BME280;3632;42.724;23.298;2023-02-24T03:04:57;95328.69;;;8.36;91.56
7182;BME280;3632;42.724;23.298;2023-02-24T03:07:28;94985.81;;;5.29;90.43
7182;BME280;3632;42.724;23.298;2023-02-24T03:09:59;94889.75;;;5.03;89.89
7182;BME280;3632;42.724;23.298;2023-02-24T03:12:29;95039.41;;;6.77;89.23
7182;BME280;3632;42.724;23.298;2023-02-24T03:14:59;95170.06;;;7.43;90.02
7182;BME280;3632;42.724;23.298;2023-02-24T03:17:32;95192.50;;;7.24;91.58
7182;BME280;3632;42.724;23.298;2023-02-24T03:20:08;94716.09;;;4.42;91.57
7182;BME280;3632;42.724;23.298;2023-02-24T03:22:41;95341.06;;;8.15;92.48
7182;BME280;3632;42.724;23.298;2023-02-24T03:25:09;95343.94;;;8.23;92.65
7182;BME280;3632;42.724;23.298;2023-02-24T03:27:44;95330.69;;;8.43;91.72
7182;BME280;3632;42.724;23.298;2023-02-24T03:30:15;95332.13;;;8.47;90.38
7182;BME280;3632;42.724;23.298;2023-02-24T03:32:48;94704.75;;;4.23;89.66
7182;BME280;3632;42.724;23.298;2023-02-24T03:35:23;94906.59;;;5.94;89.41
7182;BME280;3632;42.724;23.298;2023-02-24T03:37:51;95366.75;;;8.48;88.99
7182;BME280;3632;42.724;23.298;2023-02-24T03:40:20;95398.75;;;8.38;90.13
7182;BME280;3632;42.724;23.298;2023-02-24T03:42:58;95333.16;;;8.68;88.81
7182;BME280;3632;42.724;23.298;2023-02-24T03:45:31;95336.38;;;8.70;89.27
7182;BME280;3632;42.724;23.298;2023-02-24T03:48:00;95329.81;;;8.68;88.74
7182;BME280;3632;42.724;23.298;2023-02-24T03:50:30;95337.97;;;8.84;88.24
7182;BME280;3632;42.724;23.298;2023-02-24T03:53:02;95351.63;;;8.70;87.83
7182;BME280;3632;42.724;23.298;2023-02-24T03:55:41;95255.19;;;8.09;88.47
7182;BME280;3632;42.724;23.298;2023-02-24T03:58:17;95232.28;;;7.85;89.52
7182;BME280;3632;42.724;23.298;2023-02-24T04:00:49;95350.44;;;8.63;88.49
7182;BME280;3632;42.724;23.298;2023-02-24T04:03:24;95334.72;;;8.58;88.83
7182;BME280;3632;42.724;23.298;2023-02-24T04:06:06;95334.16;;;8.66;88.80
7182;BME280;3632;42.724;23.298;2023-02-24T04:08:38;95340.72;;;8.45;89.52
7182;BME280;3632;42.724;23.298;2023-02-24T04:11:13;94781.47;;;5.12;88.56
7182;BME280;3632;42.724;23.298;2023-02-24T04:13:47;95466.41;;;8.52;89.69
7182;BME280;3632;42.724;23.298;2023-02-24T04:16:19;95279.13;;;8.17;88.79
7182;BME280;3632;42.724;23.298;2023-02-24T04:18:56;95389.28;;;8.65;89.22
7182;BME280;3632;42.724;23.298;2023-02-24T04:21:30;95470.44;;;8.80;87.52
7182;BME280;3632;42.724;23.298;2023-02-24T04:24:00;95324.72;;;8.68;87.46
7182;BME280;3632;42.724;23.298;2023-02-24T04:26:31;95247.63;;;8.20;88.01
7182;BME280;3632;42.724;23.298;2023-02-24T04:28:59;95211.50;;;8.16;86.90
7182;BME280;3632;42.724;23.298;2023-02-24T04:31:26;95326.22;;;8.70;87.29
7182;BME280;3632;42.724;23.298;2023-02-24T04:33:53;95315.59;;;8.65;87.83
7182;BME280;3632;42.724;23.298;2023-02-24T04:36:20;95313.69;;;8.56;87.55
7182;BME280;3632;42.724;23.298;2023-02-24T04:38:49;95308.53;;;8.45;87.85
7182;BME280;3632;42.724;23.298;2023-02-24T04:41:16;95200.41;;;7.94;87.47
7182;BME280;3632;42.724;23.298;2023-02-24T04:43:46;95310.03;;;8.60;87.62
7182;BME280;3632;42.724;23.298;2023-02-24T04:46:15;95241.56;;;7.10;87.52
7182;BME280;3632;42.724;23.298;2023-02-24T04:48:42;95218.22;;;7.68;89.84
7182;BME280;3632;42.724;23.298;2023-02-24T04:51:10;94865.50;;;5.66;88.26
7182;BME280;3632;42.724;23.298;2023-02-24T04:53:38;95304.50;;;8.43;89.16
7182;BME280;3632;42.724;23.298;2023-02-24T04:56:07;95360.56;;;8.52;88.32
7182;BME280;3632;42.724;23.298;2023-02-24T04:58:35;94866.22;;;5.80;87.80
7182;BME280;3632;42.724;23.298;2023-02-24T05:01:06;95310.63;;;8.64;87.16
7182;BME280;3632;42.724;23.298;2023-02-24T05:03:35;95299.16;;;8.58;87.55
7182;BME280;3632;42.724;23.298;2023-02-24T05:06:02;95191.09;;;7.81;87.78
7182;BME280;3632;42.724;23.298;2023-02-24T05:08:31;95258.59;;;8.33;86.77
7182;BME280;3632;42.724;23.298;2023-02-24T05:10:59;95306.84;;;8.69;86.75
7182;BME280;3632;42.724;23.298;2023-02-24T05:13:30;95346.50;;;8.59;86.26
7182;BME280;3632;42.724;23.298;2023-02-24T05:15:58;95109.09;;;7.57;86.64
7182;BME280;3632;42.724;23.298;2023-02-24T05:18:25;95156.47;;;7.93;86.68
7182;BME280;3632;42.724;23.298;2023-02-24T05:20:56;95310.66;;;8.99;86.92
7182;BME280;3632;42.724;23.298;2023-02-24T05:23:42;95350.22;;;9.03;87.03
7182;BME280;3632;42.724;23.298;2023-02-24T05:26:11;94944.66;;;6.80;86.21
7182;BME280;3632;42.724;23.298;2023-02-24T05:28:44;95098.75;;;6.99;87.39
7182;BME280;3632;42.724;23.298;2023-02-24T05:31:15;95308.31;;;8.96;88.86
7182;BME280;3632;42.724;23.298;2023-02-24T05:33:45;95199.28;;;8.34;89.87
7182;BME280;3632;42.724;23.298;2023-02-24T05:36:14;94958.72;;;6.84;90.51
7182;BME280;3632;42.724;23.298;2023-02-24T05:38:42;95309.44;;;8.81;92.61
7182;BME280;3632;42.724;23.298;2023-02-24T05:41:10;95310.13;;;8.83;91.92
7182;BME280;3632;42.724;23.298;2023-02-24T05:43:44;95248.34;;;8.22;92.63
7182;BME280;3632;42.724;23.298;2023-02-24T05:46:13;95258.22;;;8.14;92.80
7182;BME280;3632;42.724;23.298;2023-02-24T05:48:40;95382.97;;;8.58;93.89
7182;BME280;3632;42.724;23.298;2023-02-24T05:51:09;95442.41;;;8.68;93.98
7182;BME280;3632;42.724;23.298;2023-02-24T05:53:37;95238.19;;;8.22;93.52
7182;BME280;3632;42.724;23.298;2023-02-24T05:56:06;95311.97;;;8.57;93.64
7182;BME280;3632;42.724;23.298;2023-02-24T05:58:33;95316.47;;;8.77;94.52
7182;BME280;3632;42.724;23.298;2023-02-24T06:01:09;95068.91;;;7.27;93.50
7182;BME280;3632;42.724;23.298;2023-02-24T06:03:41;94799.97;;;5.63;91.79
7182;BME280;3632;42.724;23.298;2023-02-24T06:06:11;95340.09;;;8.90;91.75
7182;BME280;3632;42.724;23.298;2023-02-24T06:08:38;95370.75;;;9.00;91.83
7182;BME280;3632;42.724;23.298;2023-02-24T06:11:14;95354.75;;;8.87;90.85
7182;BME280;3632;42.724;23.298;2023-02-24T06:13:43;95167.69;;;7.65;92.15
7182;BME280;3632;42.724;23.298;2023-02-24T06:16:14;95341.88;;;9.01;91.62
7182;BME280;3632;42.724;23.298;2023-02-24T06:18:41;95255.69;;;8.50;91.55
7182;BME280;3632;42.724;23.298;2023-02-24T06:21:09;95333.00;;;8.83;92.83
7182;BME280;3632;42.724;23.298;2023-02-24T06:23:37;95343.31;;;8.68;93.73
7182;BME280;3632;42.724;23.298;2023-02-24T06:26:04;95276.88;;;8.38;93.74
7182;BME280;3632;42.724;23.298;2023-02-24T06:28:37;95342.25;;;8.84;93.49
7182;BME280;3632;42.724;23.298;2023-02-24T06:31:05;95347.06;;;8.76;93.77
7182;BME280;3632;42.724;23.298;2023-02-24T06:33:34;95318.66;;;8.09;93.99
7182;BME280;3632;42.724;23.298;2023-02-24T06:36:02;95341.38;;;8.96;93.70
7182;BME280;3632;42.724;23.298;2023-02-24T06:38:29;95234.25;;;8.18;92.42
7182;BME280;3632;42.724;23.298;2023-02-24T06:40:56;95246.19;;;8.41;92.60
7182;BME280;3632;42.724;23.298;2023-02-24T06:43:23;95331.91;;;8.98;91.43
7182;BME280;3632;42.724;23.298;2023-02-24T06:45:53;95257.91;;;8.55;92.37
7182;BME280;3632;42.724;23.298;2023-02-24T06:48:20;95288.97;;;8.58;92.22
7182;BME280;3632;42.724;23.298;2023-02-24T06:50:49;95289.59;;;8.86;92.51
7182;BME280;3632;42.724;23.298;2023-02-24T06:53:16;95060.53;;;6.13;92.74
7182;BME280;3632;42.724;23.298;2023-02-24T06:55:44;95339.75;;;8.35;93.95
7182;BME280;3632;42.724;23.298;2023-02-24T06:58:15;95230.75;;;7.46;97.87
7182;BME280;3632;42.724;23.298;2023-02-24T07:00:43;95318.41;;;8.24;100.00
7182;BME280;3632;42.724;23.298;2023-02-24T07:03:22;95331.88;;;8.50;98.50
7182;BME280;3632;42.724;23.298;2023-02-24T07:05:52;95244.84;;;7.99;95.86
7182;BME280;3632;42.724;23.298;2023-02-24T07:08:36;95327.72;;;8.49;95.35
7182;BME280;3632;42.724;23.298;2023-02-24T07:11:03;95346.63;;;8.82;93.83
7182;BME280;3632;42.724;23.298;2023-02-24T07:13:32;95268.88;;;8.32;94.26
7182;BME280;3632;42.724;23.298;2023-02-24T07:16:01;95274.44;;;8.37;95.84
7182;BME280;3632;42.724;23.298;2023-02-24T07:18:31;95123.44;;;7.46;94.14
7182;BME280;3632;42.724;23.298;2023-02-24T07:21:02;95315.38;;;8.68;95.33
7182;BME280;3632;42.724;23.298;2023-02-24T07:23:36;95223.97;;;8.32;92.42
7182;BME280;3632;42.724;23.298;2023-02-24T07:26:05;95297.41;;;8.83;92.55
7182;BME280;3632;42.724;23.298;2023-02-24T07:28:39;95386.03;;;8.63;92.66
7182;BME280;3632;42.724;23.298;2023-02-24T07:31:11;95307.53;;;8.95;92.00
7182;BME280;3632;42.724;23.298;2023-02-24T07:33:39;95317.09;;;9.15;90.62
7182;BME280;3632;42.724;23.298;2023-02-24T07:36:12;95316.38;;;9.13;90.11
7182;BME280;3632;42.724;23.298;2023-02-24T07:38:41;94988.78;;;6.27;89.79
7182;BME280;3632;42.724;23.298;2023-02-24T07:41:09;95121.66;;;7.59;89.06
7182;BME280;3632;42.724;23.298;2023-02-24T07:43:37;95260.66;;;8.76;89.36
7182;BME280;3632;42.724;23.298;2023-02-24T07:46:06;94930.56;;;6.52;88.18
7182;BME280;3632;42.724;23.298;2023-02-24T07:48:33;94933.34;;;5.59;88.89
7182;BME280;3632;42.724;23.298;2023-02-24T07:51:01;95313.81;;;9.02;88.46
7182;BME280;3632;42.724;23.298;2023-02-24T07:53:33;95236.78;;;8.78;87.57
7182;BME280;3632;42.724;23.298;2023-02-24T07:55:59;95103.47;;;7.28;87.36
7182;BME280;3632;42.724;23.298;2023-02-24T07:58:31;95249.00;;;9.08;86.81
7182;BME280;3632;42.724;23.298;2023-02-24T08:01:00;94867.78;;;6.81;86.32
7182;BME280;3632;42.724;23.298;2023-02-24T08:03:33;95326.91;;;9.55;86.45
7182;BME280;3632;42.724;23.298;2023-02-24T08:06:02;95296.16;;;9.69;86.04
7182;BME280;3632;42.724;23.298;2023-02-24T08:08:41;95286.69;;;9.82;84.97
7182;BME280;3632;42.724;23.298;2023-02-24T08:11:24;95288.53;;;9.69;85.86
7182;BME280;3632;42.724;23.298;2023-02-24T08:13:51;95311.81;;;9.87;85.11
7182;BME280;3632;42.724;23.298;2023-02-24T08:16:19;95199.91;;;9.30;85.30
7182;BME280;3632;42.724;23.298;2023-02-24T08:18:47;95286.22;;;9.99;84.53
7182;BME280;3632;42.724;23.298;2023-02-24T08:21:15;95226.63;;;9.69;83.87
7182;BME280;3632;42.724;23.298;2023-02-24T08:23:46;95278.72;;;10.09;83.38
7182;BME280;3632;42.724;23.298;2023-02-24T08:26:13;95284.63;;;10.09;83.38
7182;BME280;3632;42.724;23.298;2023-02-24T08:28:40;95234.50;;;9.77;82.38
7182;BME280;3632;42.724;23.298;2023-02-24T08:31:08;95286.13;;;10.12;82.43
7182;BME280;3632;42.724;23.298;2023-02-24T08:33:36;95290.94;;;10.48;82.59
7182;BME280;3632;42.724;23.298;2023-02-24T08:36:04;95284.22;;;10.59;80.97
7182;BME280;3632;42.724;23.298;2023-02-24T08:38:33;95213.41;;;10.30;80.20
7182;BME280;3632;42.724;23.298;2023-02-24T08:41:14;95303.63;;;10.71;80.42
7182;BME280;3632;42.724;23.298;2023-02-24T08:43:44;95298.13;;;10.86;79.31
7182;BME280;3632;42.724;23.298;2023-02-24T08:46:18;95320.66;;;10.70;79.71
7182;BME280;3632;42.724;23.298;2023-02-24T08:48:51;95276.97;;;10.75;80.97
7182;BME280;3632;42.724;23.298;2023-02-24T08:51:23;95274.88;;;10.80;79.63
7182;BME280;3632;42.724;23.298;2023-02-24T08:53:54;95281.72;;;10.79;79.79
7182;BME280;3632;42.724;23.298;2023-02-24T08:56:24;95271.41;;;10.81;77.57
7182;BME280;3632;42.724;23.298;2023-02-24T08:58:54;95205.22;;;10.16;80.07
7182;BME280;3632;42.724;23.298;2023-02-24T09:01:31;95125.31;;;9.74;79.62
7182;BME280;3632;42.724;23.298;2023-02-24T09:04:01;94725.56;;;6.39;79.48
7182;BME280;3632;42.724;23.298;2023-02-24T09:06:36;95291.75;;;10.92;78.37
7182;BME280;3632;42.724;23.298;2023-02-24T09:09:03;95270.28;;;11.26;77.85
7182;BME280;3632;42.724;23.298;2023-02-24T09:11:45;95264.69;;;11.32;77.44
7182;BME280;3632;42.724;23.298;2023-02-24T09:14:13;95222.50;;;11.28;77.17
7182;BME280;3632;42.724;23.298;2023-02-24T09:16:43;95171.16;;;11.01;74.47
7182;BME280;3632;42.724;23.298;2023-02-24T09:19:31;95241.97;;;11.80;74.94
7182;BME280;3632;42.724;23.298;2023-02-24T09:22:28;95262.09;;;12.34;73.01
7182;BME280;3632;42.724;23.298;2023-02-24T09:24:58;95266.84;;;12.18;71.51
7182;BME280;3632;42.724;23.298;2023-02-24T09:27:46;95260.88;;;12.39;71.51
7182;BME280;3632;42.724;23.298;2023-02-24T09:30:18;95255.66;;;12.50;70.88
7182;BME280;3632;42.724;23.298;2023-02-24T09:33:04;95165.38;;;12.30;70.29
7182;BME280;3632;42.724;23.298;2023-02-24T09:35:32;94786.78;;;10.15;67.58
7182;BME280;3632;42.724;23.298;2023-02-24T09:38:02;95255.56;;;13.18;65.72
7182;BME280;3632;42.724;23.298;2023-02-24T09:40:32;95091.88;;;12.61;64.79
7182;BME280;3632;42.724;23.298;2023-02-24T09:43:10;95116.88;;;12.86;65.22
7182;BME280;3632;42.724;23.298;2023-02-24T09:45:48;95250.41;;;13.38;63.62
7182;BME280;3632;42.724;23.298;2023-02-24T09:48:29;95287.88;;;13.39;65.55
7182;BME280;3632;42.724;23.298;2023-02-24T09:50:58;95320.50;;;13.17;64.35
7182;BME280;3632;42.724;23.298;2023-02-24T09:53:32;95244.25;;;13.31;65.38
7182;BME280;3632;42.724;23.298;2023-02-24T09:56:14;95272.53;;;13.39;64.97
7182;BME280;3632;42.724;23.298;2023-02-24T09:58:50;95240.22;;;12.90;65.75
7182;BME280;3632;42.724;23.298;2023-02-24T10:01:30;95229.81;;;12.53;66.81
7182;BME280;3632;42.724;23.298;2023-02-24T10:04:05;95192.22;;;12.15;68.52
7182;BME280;3632;42.724;23.298;2023-02-24T10:06:39;95174.47;;;12.04;69.65
7182;BME280;3632;42.724;23.298;2023-02-24T10:09:16;95207.66;;;12.04;70.38
7182;BME280;3632;42.724;23.298;2023-02-24T10:11:50;95240.44;;;11.48;69.98
7182;BME280;3632;42.724;23.298;2023-02-24T10:14:35;95130.75;;;11.87;69.96
7182;BME280;3632;42.724;23.298;2023-02-24T10:17:11;94888.00;;;10.53;69.27
7182;BME280;3632;42.724;23.298;2023-02-24T10:19:49;94935.09;;;10.59;70.47
7182;BME280;3632;42.724;23.298;2023-02-24T10:22:23;95182.44;;;11.80;71.55
7182;BME280;3632;42.724;23.298;2023-02-24T10:24:59;95159.88;;;11.85;71.07
7182;BME280;3632;42.724;23.298;2023-02-24T10:27:51;95188.50;;;12.57;68.71
7182;BME280;3632;42.724;23.298;2023-02-24T10:30:44;95165.09;;;12.62;66.67
7182;BME280;3632;42.724;23.298;2023-02-24T10:33:22;95167.38;;;14.32;62.71
7182;BME280;3632;42.724;23.298;2023-02-24T10:36:02;95068.47;;;13.76;61.04
7182;BME280;3632;42.724;23.298;2023-02-24T10:38:33;95156.44;;;14.75;58.55
7182;BME280;3632;42.724;23.298;2023-02-24T10:41:00;94882.88;;;12.45;57.47
7182;BME280;3632;42.724;23.298;2023-02-24T10:43:31;95029.03;;;14.40;57.61
7182;BME280;3632;42.724;23.298;2023-02-24T10:46:20;95078.66;;;15.00;58.45
7182;BME280;3632;42.724;23.298;2023-02-24T10:48:51;95107.47;;;15.87;57.51
7182;BME280;3632;42.724;23.298;2023-02-24T10:51:27;95062.84;;;15.96;54.06
7182;BME280;3632;42.724;23.298;2023-02-24T10:54:05;95123.41;;;16.73;53.66
7182;BME280;3632;42.724;23.298;2023-02-24T10:56:47;94910.53;;;15.54;52.09
7182;BME280;3632;42.724;23.298;2023-02-24T11:02:47;95045.88;;;17.31;50.20
7182;BME280;3632;42.724;23.298;2023-02-24T11:08:13;95105.28;;;17.46;49.87
7182;BME280;3632;42.724;23.298;2023-02-24T11:11:01;95094.22;;;17.29;50.88
7182;BME280;3632;42.724;23.298;2023-02-24T11:13:33;95086.84;;;17.57;50.43
7182;BME280;3632;42.724;23.298;2023-02-24T11:16:19;95049.47;;;18.23;49.06
7182;BME280;3632;42.724;23.298;2023-02-24T11:19:06;95081.19;;;18.32;48.41
7182;BME280;3632;42.724;23.298;2023-02-24T11:21:33;95073.97;;;18.27;48.40
7182;BME280;3632;42.724;23.298;2023-02-24T11:24:00;95067.03;;;18.27;48.40
7182;BME280;3632;42.724;23.298;2023-02-24T11:26:34;94577.78;;;14.88;48.51
7182;BME280;3632;42.724;23.298;2023-02-24T11:29:16;94834.09;;;15.24;50.70
7182;BME280;3632;42.724;23.298;2023-02-24T11:32:00;95056.16;;;16.36;51.74
7182;BME280;3632;42.724;23.298;2023-02-24T11:34:36;95059.75;;;15.69;53.27
7182;BME280;3632;42.724;23.298;2023-02-24T11:37:15;95052.22;;;15.41;56.80
7182;BME280;3632;42.724;23.298;2023-02-24T11:39:52;95018.06;;;15.99;59.61
7182;BME280;3632;42.724;23.298;2023-02-24T11:42:24;94603.59;;;13.30;56.96
7182;BME280;3632;42.724;23.298;2023-02-24T11:44:55;95009.47;;;15.66;58.61
7182;BME280;3632;42.724;23.298;2023-02-24T11:47:28;95010.44;;;15.57;55.94
7182;BME280;3632;42.724;23.298;2023-02-24T11:50:05;94831.34;;;14.51;54.95
7182;BME280;3632;42.724;23.298;2023-02-24T11:52:42;94701.81;;;13.63;55.52
7182;BME280;3632;42.724;23.298;2023-02-24T11:55:19;94455.47;;;11.82;55.44
7182;BME280;3632;42.724;23.298;2023-02-24T11:57:52;94916.72;;;14.77;56.87
7182;BME280;3632;42.724;23.298;2023-02-24T12:00:23;94546.63;;;12.43;58.33
7182;BME280;3632;42.724;23.298;2023-02-24T12:02:58;94567.09;;;12.68;59.68
7182;BME280;3632;42.724;23.298;2023-02-24T12:05:32;94643.06;;;12.41;60.72
7182;BME280;3632;42.724;23.298;2023-02-24T12:08:06;94978.53;;;15.34;60.10
7182;BME280;3632;42.724;23.298;2023-02-24T12:10:41;95009.78;;;15.63;57.57
7182;BME280;3632;42.724;23.298;2023-02-24T12:13:16;94820.09;;;13.66;57.25
7182;BME280;3632;42.724;23.298;2023-02-24T12:15:50;94991.69;;;15.31;59.20
7182;BME280;3632;42.724;23.298;2023-02-24T12:18:25;94820.16;;;14.00;60.62
7182;BME280;3632;42.724;23.298;2023-02-24T12:21:01;95026.34;;;14.93;61.40
7182;BME280;3632;42.724;23.298;2023-02-24T12:23:32;94726.06;;;13.25;61.45
7182;BME280;3632;42.724;23.298;2023-02-24T12:26:17;94984.94;;;14.88;61.91
7182;BME280;3632;42.724;23.298;2023-02-24T12:29:29;94603.53;;;12.53;61.59
7182;BME280;3632;42.724;23.298;2023-02-24T12:32:12;94975.53;;;15.04;62.31
7182;BME280;3632;42.724;23.298;2023-02-24T12:34:54;94523.66;;;11.72;63.31
7182;BME280;3632;42.724;23.298;2023-02-24T12:37:34;94965.84;;;14.90;64.22
7182;BME280;3632;42.724;23.298;2023-02-24T12:40:15;94992.53;;;14.97;64.10
7182;BME280;3632;42.724;23.298;2023-02-24T12:42:53;94897.88;;;14.09;64.80
7182;BME280;3632;42.724;23.298;2023-02-24T12:45:31;94980.25;;;14.14;67.75
7182;BME280;3632;42.724;23.298;2023-02-24T12:48:10;94988.75;;;13.79;70.40
7182;BME280;3632;42.724;23.298;2023-02-24T12:50:48;94974.91;;;13.37;74.19
7182;BME280;3632;42.724;23.298;2023-02-24T12:53:22;94982.25;;;13.49;74.30
7182;BME280;3632;42.724;23.298;2023-02-24T12:55:59;94915.00;;;13.12;74.38
7182;BME280;3632;42.724;23.298;2023-02-24T12:58:31;94970.84;;;13.79;75.36
7182;BME280;3632;42.724;23.298;2023-02-24T13:01:06;94942.13;;;14.88;71.78
7182;BME280;3632;42.724;23.298;2023-02-24T13:03:48;94948.41;;;16.73;66.91
7182;BME280;3632;42.724;23.298;2023-02-24T13:06:28;95047.69;;;18.01;62.02
7182;BME280;3632;42.724;23.298;2023-02-24T13:09:03;94937.22;;;18.94;56.66
7182;BME280;3632;42.724;23.298;2023-02-24T13:11:37;94884.19;;;18.10;54.59
7182;BME280;3632;42.724;23.298;2023-02-24T13:14:13;94921.31;;;18.38;56.39
7182;BME280;3632;42.724;23.298;2023-02-24T13:16:42;94921.63;;;17.83;59.08
7182;BME280;3632;42.724;23.298;2023-02-24T13:19:18;94882.38;;;16.41;62.11
7182;BME280;3632;42.724;23.298;2023-02-24T13:21:54;94735.22;;;14.55;64.38
7182;BME280;3632;42.724;23.298;2023-02-24T13:24:23;94929.50;;;16.26;66.77
7182;BME280;3632;42.724;23.298;2023-02-24T13:26:50;94805.53;;;15.27;66.79
7182;BME280;3632;42.724;23.298;2023-02-24T13:29:17;94799.84;;;14.83;68.95
7182;BME280;3632;42.724;23.298;2023-02-24T13:31:47;94657.25;;;13.40;69.32
7182;BME280;3632;42.724;23.298;2023-02-24T13:34:30;94441.56;;;12.02;71.78
7182;BME280;3632;42.724;23.298;2023-02-24T13:36:57;94467.53;;;12.15;72.63
7182;BME280;3632;42.724;23.298;2023-02-24T13:39:33;94649.53;;;13.32;73.46
7182;BME280;3632;42.724;23.298;2023-02-24T13:42:02;94919.75;;;15.15;73.92
7182;BME280;3632;42.724;23.298;2023-02-24T13:44:29;94921.66;;;15.13;72.50
7182;BME280;3632;42.724;23.298;2023-02-24T13:47:28;94927.25;;;15.00;73.57
7182;BME280;3632;42.724;23.298;2023-02-24T13:50:18;94250.88;;;9.82;72.62
7182;BME280;3632;42.724;23.298;2023-02-24T13:53:24;94299.13;;;10.11;73.33
7182;BME280;3632;42.724;23.298;2023-02-24T13:56:09;94887.81;;;14.59;74.36